No requiere especial atencion con respecto al clima.   -   No hay Alarmas

Informes de METAR cercanos

 

LEXJ - Santander/Parayas, Spain
Distance from station: ESE 6km
Actualización: 20/08/2017 05:30
Despejado
Despejado
 Viento del calm
Viento: Calma
Temperatura: 14°C
Rocío: 14°C
Humedad: 100%
Barómetro: 1025 hPa
Resumen: Despejado
Visibility: greater than 10 km
2017/08/20 03:30 LEXJ 200330Z 00000KT CAVOK 14/14 Q1025
LEBB - Bilbao/Sondica, Spain
Distance from station: ESE 80km
Actualización: 20/08/2017 05:30
Few Clouds
Few Clouds
 Viento del varies
Viento: varies 4 km/h
Temperatura: 14°C
Rocío: 13°C
Humedad: 94%
Barómetro: 1026 hPa
Clouds: Few Clouds
Visibility: 10 km
Cloud details: Few Clouds 1067 m
2017/08/20 03:30 LEBB 200330Z VRB02KT 9999 FEW035 14/13 Q1026 NOSIG
 
LEBL - Barcelona Airpor, Spain
Distance from station: ESE 726km
Actualización: 20/08/2017 05:30
Muy nuboso
Muy nuboso
 Viento del SO
Viento: SO 9 km/h
Temperatura: 25°C
Rocío: 20°C
Humedad: 74%
Barómetro: 1019 hPa
Clouds: Muy nuboso
Visibility: 10 km
Cloud details: Few Clouds 457 m
Parcialmente nuboso 762 m
Muy nuboso 1219 m
2017/08/20 03:30 LEBL 200330Z 22005KT 9999 FEW015 SCT025 BKN040 25/20 Q1019 NOSIG
LEMD - Madrid/Barajas, Spain
Distance from station: S 325km
Actualización: 20/08/2017 05:30
Despejado
Despejado
 Viento del N
Viento: N 9 km/h
Temperatura: 22°C
Rocío: 10°C
Humedad: 47%
Barómetro: 1021 hPa
Resumen: Despejado
Visibility: greater than 10 km
2017/08/20 03:30 LEMD 200330Z 35005KT CAVOK 22/10 Q1021 NOSIG
 
LPPT - Lisbon/Portela, Portugal
Distance from station: SO 663km
Actualización: 20/08/2017 05:30
Despejado
Despejado
 Viento del NE
Viento: NE 6 km/h
Temperatura: 21°C
Rocío: 16°C
Humedad: 73%
Barómetro: 1015 hPa
Resumen: Despejado
Visibility: greater than 10 km
2017/08/20 03:30 LPPT 200330Z 04003KT 010V070 CAVOK 21/16 Q1015
LECO - La Coruna/Alvedr, Spain
Distance from station: O 349km
Actualización: 20/08/2017 05:30
Despejado
Despejado
 Viento del S
Viento: S 4 km/h
Temperatura: 14°C
Rocío: 13°C
Humedad: 94%
Barómetro: 1022 hPa
Resumen: Despejado
Visibility: greater than 10 km
2017/08/20 03:30 LECO 200330Z 19002KT CAVOK 14/13 Q1022 NOSIG
 
LEST - Santiago/Labacol, Spain
Distance from station: O 358km
Actualización: 20/08/2017 05:30
Despejado
Despejado
 Viento del varies
Viento: varies 4 km/h
Temperatura: 15°C
Rocío: 12°C
Humedad: 82%
Barómetro: 1022 hPa
Resumen: Despejado
Visibility: greater than 10 km
2017/08/20 03:30 LEST 200330Z VRB02KT CAVOK 15/12 Q1022 NOSIG
EBBR - Brussels International Airport, Belgium
Distance from station: O 1339km
Actualización: 20/08/2017 05:50
Despejado
Despejado
 Viento del SO
Viento: SO 15 km/h
Temperatura: 12°C
Rocío: 10°C
Humedad: 88%
Barómetro: 1021 hPa
Resumen: Despejado
Visibility: greater than 10 km
2017/08/20 03:50 EBBR 200350Z 23008KT CAVOK 12/10 Q1021 NOSIG